sensor_id;sensor_type;location;lat;lon;timestamp;pressure;altitude;pressure_sealevel;temperature;humidity
82033;BME280;71595;52.180;4.512;2023-11-21T00:01:43;101168.66;;;8.81;88.80
82033;BME280;71595;52.180;4.512;2023-11-21T00:04:09;101177.44;;;8.84;89.04
82033;BME280;71595;52.180;4.512;2023-11-21T00:06:34;101171.28;;;8.87;88.98
82033;BME280;71595;52.180;4.512;2023-11-21T00:09:00;101175.31;;;8.89;89.08
82033;BME280;71595;52.180;4.512;2023-11-21T00:11:25;101177.75;;;8.91;89.01
82033;BME280;71595;52.180;4.512;2023-11-21T00:13:51;101182.63;;;8.94;89.24
82033;BME280;71595;52.180;4.512;2023-11-21T00:16:16;101188.13;;;8.94;89.35
82033;BME280;71595;52.180;4.512;2023-11-21T00:18:42;101187.50;;;8.97;89.56
82033;BME280;71595;52.180;4.512;2023-11-21T00:21:08;101180.34;;;8.96;89.04
82033;BME280;71595;52.180;4.512;2023-11-21T00:23:34;101181.97;;;8.97;89.09
82033;BME280;71595;52.180;4.512;2023-11-21T00:26:00;101170.97;;;8.97;88.76
82033;BME280;71595;52.180;4.512;2023-11-21T00:28:26;101180.84;;;8.98;88.73
82033;BME280;71595;52.180;4.512;2023-11-21T00:30:51;101178.44;;;8.96;88.79
82033;BME280;71595;52.180;4.512;2023-11-21T00:33:16;101180.84;;;8.98;88.95
82033;BME280;71595;52.180;4.512;2023-11-21T00:35:42;101183.28;;;8.99;89.02
82033;BME280;71595;52.180;4.512;2023-11-21T00:38:07;101185.22;;;8.99;89.37
82033;BME280;71595;52.180;4.512;2023-11-21T00:40:33;101193.16;;;9.00;89.30
82033;BME280;71595;52.180;4.512;2023-11-21T00:42:59;101193.34;;;9.04;89.08
82033;BME280;71595;52.180;4.512;2023-11-21T00:45:24;101194.94;;;9.05;89.18
82033;BME280;71595;52.180;4.512;2023-11-21T00:47:50;101196.59;;;9.06;89.13
82033;BME280;71595;52.180;4.512;2023-11-21T00:50:15;101199.81;;;9.08;89.19
82033;BME280;71595;52.180;4.512;2023-11-21T00:52:41;101196.59;;;9.06;88.92
82033;BME280;71595;52.180;4.512;2023-11-21T00:55:06;101194.94;;;9.05;88.96
82033;BME280;71595;52.180;4.512;2023-11-21T00:57:33;101190.91;;;9.03;88.57
82033;BME280;71595;52.180;4.512;2023-11-21T00:59:58;101184.56;;;9.02;88.57
82033;BME280;71595;52.180;4.512;2023-11-21T01:02:23;101189.13;;;8.98;88.80
82033;BME280;71595;52.180;4.512;2023-11-21T01:04:50;101196.22;;;8.99;88.69
82033;BME280;71595;52.180;4.512;2023-11-21T01:07:15;101199.63;;;8.96;88.09
82033;BME280;71595;52.180;4.512;2023-11-21T01:09:41;101218.09;;;8.95;88.32
82033;BME280;71595;52.180;4.512;2023-11-21T01:12:06;101215.69;;;8.94;88.67
82033;BME280;71595;52.180;4.512;2023-11-21T01:14:32;101211.81;;;8.95;88.83
82033;BME280;71595;52.180;4.512;2023-11-21T01:16:57;101217.78;;;8.97;88.86
82033;BME280;71595;52.180;4.512;2023-11-21T01:19:22;101222.19;;;8.98;88.75
82033;BME280;71595;52.180;4.512;2023-11-21T01:21:48;101215.03;;;8.97;89.22
82033;BME280;71595;52.180;4.512;2023-11-21T01:24:14;101230.75;;;8.96;89.18
82033;BME280;71595;52.180;4.512;2023-11-21T01:26:39;101226.06;;;8.97;89.29
82033;BME280;71595;52.180;4.512;2023-11-21T01:29:04;101228.50;;;8.98;89.19
82033;BME280;71595;52.180;4.512;2023-11-21T01:31:30;101227.84;;;9.02;89.49
82033;BME280;71595;52.180;4.512;2023-11-21T01:33:56;101234.69;;;9.04;89.37
82033;BME280;71595;52.180;4.512;2023-11-21T01:36:22;101234.34;;;9.06;89.24
82033;BME280;71595;52.180;4.512;2023-11-21T01:38:47;101242.78;;;9.09;89.37
82033;BME280;71595;52.180;4.512;2023-11-21T01:41:15;101244.09;;;9.12;89.42
82033;BME280;71595;52.180;4.512;2023-11-21T01:43:41;101244.91;;;9.12;89.54
82033;BME280;71595;52.180;4.512;2023-11-21T01:46:08;101244.25;;;9.15;89.42
82033;BME280;71595;52.180;4.512;2023-11-21T01:48:34;101250.78;;;9.20;89.36
82033;BME280;71595;52.180;4.512;2023-11-21T01:51:00;101253.22;;;9.21;89.82
82033;BME280;71595;52.180;4.512;2023-11-21T01:53:26;101260.50;;;9.26;89.70
82033;BME280;71595;52.180;4.512;2023-11-21T01:55:53;101263.75;;;9.28;89.83
82033;BME280;71595;52.180;4.512;2023-11-21T01:58:19;101272.50;;;9.30;89.75
82033;BME280;71595;52.180;4.512;2023-11-21T02:00:45;101270.25;;;9.32;89.89
82033;BME280;71595;52.180;4.512;2023-11-21T02:03:10;101263.91;;;9.31;89.91
82033;BME280;71595;52.180;4.512;2023-11-21T02:05:36;101263.91;;;9.31;89.46
82033;BME280;71595;52.180;4.512;2023-11-21T02:08:01;101263.59;;;9.33;89.70
82033;BME280;71595;52.180;4.512;2023-11-21T02:10:28;101271.22;;;9.36;89.91
82033;BME280;71595;52.180;4.512;2023-11-21T02:12:54;101270.41;;;9.35;90.19
82033;BME280;71595;52.180;4.512;2023-11-21T02:15:21;101272.06;;;9.37;90.02
82033;BME280;71595;52.180;4.512;2023-11-21T02:17:48;101277.72;;;9.40;90.10
82033;BME280;71595;52.180;4.512;2023-11-21T02:20:19;101283.72;;;9.42;89.96
82033;BME280;71595;52.180;4.512;2023-11-21T02:22:55;101277.25;;;9.47;89.91
82033;BME280;71595;52.180;4.512;2023-11-21T02:25:28;101286.19;;;9.52;90.56
82033;BME280;71595;52.180;4.512;2023-11-21T02:27:55;101291.06;;;9.56;90.67
82033;BME280;71595;52.180;4.512;2023-11-21T02:30:23;101292.84;;;9.60;90.97
82033;BME280;71595;52.180;4.512;2023-11-21T02:32:51;101286.69;;;9.63;91.22
82033;BME280;71595;52.180;4.512;2023-11-21T02:35:18;101286.84;;;9.67;91.25
82033;BME280;71595;52.180;4.512;2023-11-21T02:37:49;101271.94;;;9.68;91.33
82033;BME280;71595;52.180;4.512;2023-11-21T02:40:15;101275.19;;;9.70;91.27
82033;BME280;71595;52.180;4.512;2023-11-21T02:42:52;101275.19;;;9.70;91.08
82033;BME280;71595;52.180;4.512;2023-11-21T02:45:20;101281.34;;;9.67;90.64
82033;BME280;71595;52.180;4.512;2023-11-21T02:47:47;101286.69;;;9.63;91.19
82033;BME280;71595;52.180;4.512;2023-11-21T02:50:13;101283.44;;;9.61;91.22
82033;BME280;71595;52.180;4.512;2023-11-21T02:52:38;101279.88;;;9.61;90.72
82033;BME280;71595;52.180;4.512;2023-11-21T02:55:06;101277.75;;;9.58;90.45
82033;BME280;71595;52.180;4.512;2023-11-21T02:57:32;101271.75;;;9.56;90.35
82033;BME280;71595;52.180;4.512;2023-11-21T02:59:58;101285.34;;;9.52;90.17
82033;BME280;71595;52.180;4.512;2023-11-21T03:02:25;101292.81;;;9.51;90.42
82033;BME280;71595;52.180;4.512;2023-11-21T03:04:50;101294.13;;;9.54;90.48
82033;BME280;71595;52.180;4.512;2023-11-21T03:07:16;101297.22;;;9.52;90.27
82033;BME280;71595;52.180;4.512;2023-11-21T03:09:42;101296.38;;;9.52;90.18
82033;BME280;71595;52.180;4.512;2023-11-21T03:12:08;101295.91;;;9.50;89.98
82033;BME280;71595;52.180;4.512;2023-11-21T03:14:34;101294.63;;;9.47;90.09
82033;BME280;71595;52.180;4.512;2023-11-21T03:16:59;101289.91;;;9.48;90.37
82033;BME280;71595;52.180;4.512;2023-11-21T03:19:24;101291.19;;;9.50;90.32
82033;BME280;71595;52.180;4.512;2023-11-21T03:21:50;101295.59;;;9.51;90.40
82033;BME280;71595;52.180;4.512;2023-11-21T03:34:26;101310.69;;;9.54;90.65
82033;BME280;71595;52.180;4.512;2023-11-21T03:37:10;101312.81;;;9.57;90.75
82033;BME280;71595;52.180;4.512;2023-11-21T03:39:35;101331.28;;;9.57;90.96
82033;BME280;71595;52.180;4.512;2023-11-21T03:42:00;101329.03;;;9.59;90.82
82033;BME280;71595;52.180;4.512;2023-11-21T03:44:25;101326.09;;;9.64;90.68
82033;BME280;71595;52.180;4.512;2023-11-21T03:46:51;101326.09;;;9.64;90.69
82033;BME280;71595;52.180;4.512;2023-11-21T03:49:16;101330.50;;;9.65;90.84
82033;BME280;71595;52.180;4.512;2023-11-21T03:51:41;101341.22;;;9.66;90.84
82033;BME280;71595;52.180;4.512;2023-11-21T03:54:07;101340.72;;;9.73;90.95
82033;BME280;71595;52.180;4.512;2023-11-21T03:56:32;101349.47;;;9.75;91.16
82033;BME280;71595;52.180;4.512;2023-11-21T03:58:57;101355.19;;;9.79;91.26
82033;BME280;71595;52.180;4.512;2023-11-21T04:01:23;101351.28;;;9.80;91.58
82033;BME280;71595;52.180;4.512;2023-11-21T04:03:50;101355.34;;;9.82;91.73
82033;BME280;71595;52.180;4.512;2023-11-21T04:06:16;101360.69;;;9.87;91.34
82033;BME280;71595;52.180;4.512;2023-11-21T04:08:43;101361.22;;;9.89;91.51
82033;BME280;71595;52.180;4.512;2023-11-21T04:11:09;101359.41;;;9.94;91.66
82033;BME280;71595;52.180;4.512;2023-11-21T04:13:37;101367.69;;;9.94;91.63
82033;BME280;71595;52.180;4.512;2023-11-21T04:16:02;101372.41;;;9.93;91.47
82033;BME280;71595;52.180;4.512;2023-11-21T04:18:28;101374.84;;;9.95;91.88
82033;BME280;71595;52.180;4.512;2023-11-21T04:20:53;101382.00;;;9.96;91.60
82033;BME280;71595;52.180;4.512;2023-11-21T04:23:19;101386.53;;;9.92;91.71
82033;BME280;71595;52.180;4.512;2023-11-21T04:25:44;101384.25;;;9.94;91.61
82033;BME280;71595;52.180;4.512;2023-11-21T04:28:10;101395.59;;;9.92;91.81
82033;BME280;71595;52.180;4.512;2023-11-21T04:30:35;101389.75;;;9.94;91.43
82033;BME280;71595;52.180;4.512;2023-11-21T04:33:00;101399.84;;;9.89;90.97
82033;BME280;71595;52.180;4.512;2023-11-21T04:35:26;101395.59;;;9.83;90.93
82033;BME280;71595;52.180;4.512;2023-11-21T04:37:51;101398.38;;;9.83;90.97
82033;BME280;71595;52.180;4.512;2023-11-21T04:40:16;101404.00;;;9.78;90.53
82033;BME280;71595;52.180;4.512;2023-11-21T04:42:42;101396.88;;;9.77;90.75
82033;BME280;71595;52.180;4.512;2023-11-21T04:45:08;101400.75;;;9.76;90.80
82033;BME280;71595;52.180;4.512;2023-11-21T04:47:35;101411.63;;;9.73;90.38
82033;BME280;71595;52.180;4.512;2023-11-21T04:50:00;101415.66;;;9.66;90.08
82033;BME280;71595;52.180;4.512;2023-11-21T04:52:25;101405.75;;;9.65;90.21
82033;BME280;71595;52.180;4.512;2023-11-21T04:54:51;101418.75;;;9.65;90.43
82033;BME280;71595;52.180;4.512;2023-11-21T04:57:16;101423.13;;;9.66;89.81
82033;BME280;71595;52.180;4.512;2023-11-21T04:59:44;101411.91;;;9.62;89.75
82033;BME280;71595;52.180;4.512;2023-11-21T05:02:09;101426.03;;;9.61;89.22
82033;BME280;71595;52.180;4.512;2023-11-21T05:04:34;101426.19;;;9.56;89.78
82033;BME280;71595;52.180;4.512;2023-11-21T05:06:59;101437.31;;;9.50;89.39
82033;BME280;71595;52.180;4.512;2023-11-21T05:09:26;101451.63;;;9.52;89.72
82033;BME280;71595;52.180;4.512;2023-11-21T05:11:51;101439.97;;;9.56;89.94
82033;BME280;71595;52.180;4.512;2023-11-21T05:14:18;101448.09;;;9.61;90.15
82033;BME280;71595;52.180;4.512;2023-11-21T05:16:43;101449.72;;;9.62;90.25
82033;BME280;71595;52.180;4.512;2023-11-21T05:19:09;101456.84;;;9.63;89.94
82033;BME280;71595;52.180;4.512;2023-11-21T05:21:34;101457.69;;;9.63;90.01
82033;BME280;71595;52.180;4.512;2023-11-21T05:24:01;101459.28;;;9.64;90.37
82033;BME280;71595;52.180;4.512;2023-11-21T05:26:26;101462.56;;;9.66;90.40
82033;BME280;71595;52.180;4.512;2023-11-21T05:28:52;101468.06;;;9.66;90.57
82033;BME280;71595;52.180;4.512;2023-11-21T05:31:18;101471.00;;;9.70;90.65
82033;BME280;71595;52.180;4.512;2023-11-21T05:33:43;101474.56;;;9.70;90.40
82033;BME280;71595;52.180;4.512;2023-11-21T05:36:09;101473.13;;;9.73;90.63
82033;BME280;71595;52.180;4.512;2023-11-21T05:38:35;101472.31;;;9.73;90.80
82033;BME280;71595;52.180;4.512;2023-11-21T05:41:01;101464.53;;;9.75;90.62
82033;BME280;71595;52.180;4.512;2023-11-21T05:43:27;101475.56;;;9.75;90.82
82033;BME280;71595;52.180;4.512;2023-11-21T05:45:54;101478.81;;;9.77;90.65
82033;BME280;71595;52.180;4.512;2023-11-21T05:48:20;101472.47;;;9.76;90.61
82033;BME280;71595;52.180;4.512;2023-11-21T05:50:46;101492.28;;;9.78;90.66
82033;BME280;71595;52.180;4.512;2023-11-21T05:53:12;101492.78;;;9.80;90.84
82033;BME280;71595;52.180;4.512;2023-11-21T05:55:37;101497.47;;;9.80;90.66
82033;BME280;71595;52.180;4.512;2023-11-21T05:58:04;101501.72;;;9.77;90.61
82033;BME280;71595;52.180;4.512;2023-11-21T06:00:29;101501.56;;;9.82;90.83
82033;BME280;71595;52.180;4.512;2023-11-21T06:02:57;101512.09;;;9.80;90.65
82033;BME280;71595;52.180;4.512;2023-11-21T06:05:24;101518.44;;;9.81;90.64
82033;BME280;71595;52.180;4.512;2023-11-21T06:07:50;101515.19;;;9.79;90.81
82033;BME280;71595;52.180;4.512;2023-11-21T06:10:19;101521.50;;;9.79;90.66
82033;BME280;71595;52.180;4.512;2023-11-21T06:12:45;101519.22;;;9.81;90.54
82033;BME280;71595;52.180;4.512;2023-11-21T06:15:10;101523.13;;;9.80;90.64
82033;BME280;71595;52.180;4.512;2023-11-21T06:17:39;101528.66;;;9.80;90.17
82033;BME280;71595;52.180;4.512;2023-11-21T06:20:09;101536.63;;;9.82;90.07
82033;BME280;71595;52.180;4.512;2023-11-21T06:22:37;101530.09;;;9.78;90.22
82033;BME280;71595;52.180;4.512;2023-11-21T06:25:03;101538.38;;;9.78;90.40
82033;BME280;71595;52.180;4.512;2023-11-21T06:27:33;101548.59;;;9.77;90.27
82033;BME280;71595;52.180;4.512;2023-11-21T06:29:59;101544.69;;;9.78;90.01
82033;BME280;71595;52.180;4.512;2023-11-21T06:32:24;101543.88;;;9.78;89.98
82033;BME280;71595;52.180;4.512;2023-11-21T06:34:51;101550.22;;;9.78;90.24
82033;BME280;71595;52.180;4.512;2023-11-21T06:37:19;101559.31;;;9.79;89.82
82033;BME280;71595;52.180;4.512;2023-11-21T06:39:48;101556.88;;;9.77;90.07
82033;BME280;71595;52.180;4.512;2023-11-21T06:42:13;101561.75;;;9.80;89.93
82033;BME280;71595;52.180;4.512;2023-11-21T06:44:40;101564.19;;;9.82;90.49
82033;BME280;71595;52.180;4.512;2023-11-21T06:47:06;101572.97;;;9.84;90.21
82033;BME280;71595;52.180;4.512;2023-11-21T06:49:32;101574.78;;;9.88;90.03
82033;BME280;71595;52.180;4.512;2023-11-21T06:51:57;101585.19;;;9.92;89.78
82033;BME280;71595;52.180;4.512;2023-11-21T06:54:23;101582.28;;;9.97;89.48
82033;BME280;71595;52.180;4.512;2023-11-21T06:56:49;101593.31;;;9.97;89.21
82033;BME280;71595;52.180;4.512;2023-11-21T06:59:15;101594.94;;;9.98;89.02
82033;BME280;71595;52.180;4.512;2023-11-21T07:01:40;101603.72;;;10.00;89.01
82033;BME280;71595;52.180;4.512;2023-11-21T07:04:07;101604.34;;;9.97;88.54
82033;BME280;71595;52.180;4.512;2023-11-21T07:06:32;101604.88;;;9.99;88.00
82033;BME280;71595;52.180;4.512;2023-11-21T07:08:58;101600.97;;;10.00;88.04
82033;BME280;71595;52.180;4.512;2023-11-21T07:11:24;101605.03;;;10.02;87.72
82033;BME280;71595;52.180;4.512;2023-11-21T07:13:50;101611.69;;;10.01;88.21
82033;BME280;71595;52.180;4.512;2023-11-21T07:16:16;101621.91;;;10.01;87.75
82033;BME280;71595;52.180;4.512;2023-11-21T07:18:41;101625.97;;;10.03;87.26
82033;BME280;71595;52.180;4.512;2023-11-21T07:21:06;101633.44;;;10.03;87.10
82033;BME280;71595;52.180;4.512;2023-11-21T07:23:33;101625.16;;;10.03;87.18
82033;BME280;71595;52.180;4.512;2023-11-21T07:25:59;101641.72;;;10.03;87.52
82033;BME280;71595;52.180;4.512;2023-11-21T07:28:24;101646.91;;;10.04;87.52
82033;BME280;71595;52.180;4.512;2023-11-21T07:30:51;101659.06;;;10.03;87.63
82033;BME280;71595;52.180;4.512;2023-11-21T07:33:16;101664.59;;;10.03;87.08
82033;BME280;71595;52.180;4.512;2023-11-21T07:35:42;101655.19;;;10.04;87.54
82033;BME280;71595;52.180;4.512;2023-11-21T07:38:08;101659.06;;;10.03;87.75
82033;BME280;71595;52.180;4.512;2023-11-21T07:40:33;101661.53;;;10.05;87.45
82033;BME280;71595;52.180;4.512;2023-11-21T07:42:58;101658.75;;;10.05;87.32
82033;BME280;71595;52.180;4.512;2023-11-21T07:45:24;101662.03;;;10.07;87.21
82033;BME280;71595;52.180;4.512;2023-11-21T07:47:53;101655.88;;;10.10;86.90
82033;BME280;71595;52.180;4.512;2023-11-21T07:50:18;101659.13;;;10.12;86.71
82033;BME280;71595;52.180;4.512;2023-11-21T07:52:45;101669.06;;;10.13;87.18
82033;BME280;71595;52.180;4.512;2023-11-21T07:55:10;101670.66;;;10.14;86.70
82033;BME280;71595;52.180;4.512;2023-11-21T07:57:36;101676.72;;;10.16;86.84
82033;BME280;71595;52.180;4.512;2023-11-21T08:00:03;101680.59;;;10.15;86.69
82033;BME280;71595;52.180;4.512;2023-11-21T08:02:31;101695.72;;;10.18;86.75
82033;BME280;71595;52.180;4.512;2023-11-21T08:04:57;101699.28;;;10.18;86.49
82033;BME280;71595;52.180;4.512;2023-11-21T08:07:22;101702.53;;;10.20;87.03
82033;BME280;71595;52.180;4.512;2023-11-21T08:09:48;101705.81;;;10.22;87.02
82033;BME280;71595;52.180;4.512;2023-11-21T08:12:15;101705.81;;;10.22;87.00
82033;BME280;71595;52.180;4.512;2023-11-21T08:14:40;101717.66;;;10.23;86.78
82033;BME280;71595;52.180;4.512;2023-11-21T08:17:06;101711.31;;;10.22;86.74
82033;BME280;71595;52.180;4.512;2023-11-21T08:19:31;101725.63;;;10.24;86.71
82033;BME280;71595;52.180;4.512;2023-11-21T08:21:58;101723.34;;;10.26;86.51
82033;BME280;71595;52.180;4.512;2023-11-21T08:24:24;101719.78;;;10.26;86.69
82033;BME280;71595;52.180;4.512;2023-11-21T08:26:50;101721.09;;;10.29;86.83
82033;BME280;71595;52.180;4.512;2023-11-21T08:29:17;101725.16;;;10.31;86.44
82033;BME280;71595;52.180;4.512;2023-11-21T08:31:43;101722.94;;;10.33;86.46
82033;BME280;71595;52.180;4.512;2023-11-21T08:34:12;101723.75;;;10.34;86.58
82033;BME280;71595;52.180;4.512;2023-11-21T08:36:43;101721.00;;;10.34;86.78
82033;BME280;71595;52.180;4.512;2023-11-21T08:39:09;101719.34;;;10.33;86.91
82033;BME280;71595;52.180;4.512;2023-11-21T08:41:35;101725.72;;;10.33;86.77
82033;BME280;71595;52.180;4.512;2023-11-21T08:44:02;101725.09;;;10.36;86.88
82033;BME280;71595;52.180;4.512;2023-11-21T08:46:27;101725.41;;;10.35;86.96
82033;BME280;71595;52.180;4.512;2023-11-21T08:48:53;101730.09;;;10.34;87.21
82033;BME280;71595;52.180;4.512;2023-11-21T08:51:18;101738.69;;;10.33;87.45
82033;BME280;71595;52.180;4.512;2023-11-21T08:53:43;101741.44;;;10.33;87.28
82033;BME280;71595;52.180;4.512;2023-11-21T08:56:13;101748.59;;;10.34;87.34
82033;BME280;71595;52.180;4.512;2023-11-21T08:58:39;101755.25;;;10.33;87.66
82033;BME280;71595;52.180;4.512;2023-11-21T09:01:05;101754.13;;;10.34;87.16
82033;BME280;71595;52.180;4.512;2023-11-21T09:03:32;101771.19;;;10.36;87.63
82033;BME280;71595;52.180;4.512;2023-11-21T09:05:59;101764.53;;;10.37;87.58
82033;BME280;71595;52.180;4.512;2023-11-21T09:08:25;101767.94;;;10.34;87.34
82033;BME280;71595;52.180;4.512;2023-11-21T09:10:50;101774.06;;;10.31;87.26
82033;BME280;71595;52.180;4.512;2023-11-21T09:13:15;101778.78;;;10.30;87.07
82033;BME280;71595;52.180;4.512;2023-11-21T09:15:42;101785.09;;;10.31;87.26
82033;BME280;71595;52.180;4.512;2023-11-21T09:18:09;101785.09;;;10.31;87.21
82033;BME280;71595;52.180;4.512;2023-11-21T09:20:35;101793.22;;;10.27;87.07
82033;BME280;71595;52.180;4.512;2023-11-21T09:23:00;101801.66;;;10.31;86.93
82033;BME280;71595;52.180;4.512;2023-11-21T09:25:26;101800.53;;;10.32;87.21
82033;BME280;71595;52.180;4.512;2023-11-21T09:27:51;101807.19;;;10.31;87.00
82033;BME280;71595;52.180;4.512;2023-11-21T09:30:17;101805.53;;;10.30;87.07
82033;BME280;71595;52.180;4.512;2023-11-21T09:32:43;101816.28;;;10.31;86.91
82033;BME280;71595;52.180;4.512;2023-11-21T09:35:10;101823.75;;;10.31;87.14
82033;BME280;71595;52.180;4.512;2023-11-21T09:37:36;101826.19;;;10.32;86.84
82033;BME280;71595;52.180;4.512;2023-11-21T09:40:03;101827.03;;;10.33;87.35
82033;BME280;71595;52.180;4.512;2023-11-21T09:42:36;101840.53;;;10.34;87.09
82033;BME280;71595;52.180;4.512;2023-11-21T09:45:12;101848.28;;;10.32;87.10
82033;BME280;71595;52.180;4.512;2023-11-21T09:47:42;101858.53;;;10.32;87.33
82033;BME280;71595;52.180;4.512;2023-11-21T09:50:08;101857.69;;;10.31;86.84
82033;BME280;71595;52.180;4.512;2023-11-21T09:52:55;101861.38;;;10.26;86.90
82033;BME280;71595;52.180;4.512;2023-11-21T09:55:25;101877.59;;;10.19;86.52
82033;BME280;71595;52.180;4.512;2023-11-21T09:57:52;101885.88;;;10.19;86.48
82033;BME280;71595;52.180;4.512;2023-11-21T10:00:19;101884.72;;;10.20;86.51
82033;BME280;71595;52.180;4.512;2023-11-21T10:02:49;101896.91;;;10.19;87.03
82033;BME280;71595;52.180;4.512;2023-11-21T10:05:16;101898.22;;;10.22;86.49
82033;BME280;71595;52.180;4.512;2023-11-21T10:07:43;101902.63;;;10.23;86.11
82033;BME280;71595;52.180;4.512;2023-11-21T10:10:10;101908.63;;;10.25;86.39
82033;BME280;71595;52.180;4.512;2023-11-21T10:12:37;101906.41;;;10.27;86.63
82033;BME280;71595;52.180;4.512;2023-11-21T10:15:07;101908.84;;;10.29;86.48
82033;BME280;71595;52.180;4.512;2023-11-21T10:17:36;101911.09;;;10.26;86.51
82033;BME280;71595;52.180;4.512;2023-11-21T10:20:09;101927.03;;;10.30;86.31
82033;BME280;71595;52.180;4.512;2023-11-21T10:22:43;101932.84;;;10.28;86.25
82033;BME280;71595;52.180;4.512;2023-11-21T10:25:13;101932.38;;;10.26;85.33
82033;BME280;71595;52.180;4.512;2023-11-21T10:27:47;101939.53;;;10.27;85.28
82033;BME280;71595;52.180;4.512;2023-11-21T10:30:12;101938.69;;;10.26;85.06
82033;BME280;71595;52.180;4.512;2023-11-21T10:32:41;101937.09;;;10.25;85.08
82033;BME280;71595;52.180;4.512;2023-11-21T10:35:08;101941.47;;;10.26;85.01
82033;BME280;71595;52.180;4.512;2023-11-21T10:37:37;101944.34;;;10.21;85.03
82033;BME280;71595;52.180;4.512;2023-11-21T10:40:06;101953.13;;;10.23;85.21
82033;BME280;71595;52.180;4.512;2023-11-21T10:42:32;101944.84;;;10.23;84.67
82033;BME280;71595;52.180;4.512;2023-11-21T10:44:58;101943.41;;;10.26;84.71
82033;BME280;71595;52.180;4.512;2023-11-21T10:47:23;101953.44;;;10.22;84.87
82033;BME280;71595;52.180;4.512;2023-11-21T10:49:49;101952.81;;;10.25;85.09
82033;BME280;71595;52.180;4.512;2023-11-21T10:52:15;101954.16;;;10.28;84.55
82033;BME280;71595;52.180;4.512;2023-11-21T10:54:43;101954.63;;;10.30;84.39
82033;BME280;71595;52.180;4.512;2023-11-21T11:08:21;101962.44;;;10.28;83.44
82033;BME280;71595;52.180;4.512;2023-11-21T11:10:51;101966.31;;;10.26;83.67
82033;BME280;71595;52.180;4.512;2023-11-21T11:13:17;101971.19;;;10.30;83.85
82033;BME280;71595;52.180;4.512;2023-11-21T11:15:47;101971.19;;;10.30;83.89
82033;BME280;71595;52.180;4.512;2023-11-21T11:18:12;101973.38;;;10.33;84.27
82033;BME280;71595;52.180;4.512;2023-11-21T11:20:39;101968.97;;;10.32;84.00
82033;BME280;71595;52.180;4.512;2023-11-21T11:25:51;101969.50;;;10.34;83.52
82033;BME280;71595;52.180;4.512;2023-11-21T11:28:26;101982.69;;;10.37;83.58
82033;BME280;71595;52.180;4.512;2023-11-21T11:34:09;101977.97;;;10.37;82.96
82033;BME280;71595;52.180;4.512;2023-11-21T11:36:46;101982.69;;;10.37;83.06
82033;BME280;71595;52.180;4.512;2023-11-21T11:41:58;101977.66;;;10.39;83.79
82033;BME280;71595;52.180;4.512;2023-11-21T11:47:20;101995.38;;;10.38;83.39
82033;BME280;71595;52.180;4.512;2023-11-21T11:50:08;101988.09;;;10.42;83.33
82033;BME280;71595;52.180;4.512;2023-11-21T11:52:45;101995.13;;;10.48;82.95
82033;BME280;71595;52.180;4.512;2023-11-21T11:55:15;101993.06;;;10.54;82.65
82033;BME280;71595;52.180;4.512;2023-11-21T11:57:45;101998.16;;;10.60;82.57
82033;BME280;71595;52.180;4.512;2023-11-21T12:00:22;101993.66;;;10.65;81.95
82033;BME280;71595;52.180;4.512;2023-11-21T12:02:55;102002.00;;;10.73;82.09
82033;BME280;71595;52.180;4.512;2023-11-21T12:05:25;102006.22;;;10.71;81.43
82033;BME280;71595;52.180;4.512;2023-11-21T12:07:55;102003.84;;;10.78;81.12
82033;BME280;71595;52.180;4.512;2023-11-21T12:10:27;102007.94;;;10.81;80.92
82033;BME280;71595;52.180;4.512;2023-11-21T12:13:06;102022.56;;;10.81;80.81
82033;BME280;71595;52.180;4.512;2023-11-21T12:15:36;102023.06;;;10.83;80.89
82033;BME280;71595;52.180;4.512;2023-11-21T12:18:02;102020.00;;;10.85;80.90
82033;BME280;71595;52.180;4.512;2023-11-21T12:20:28;102015.91;;;10.82;80.41
82033;BME280;71595;52.180;4.512;2023-11-21T12:22:58;102026.97;;;10.82;80.06
82033;BME280;71595;52.180;4.512;2023-11-21T12:25:30;102028.06;;;10.81;79.70
82033;BME280;71595;52.180;4.512;2023-11-21T12:28:00;102030.84;;;10.81;79.76
82033;BME280;71595;52.180;4.512;2023-11-21T12:30:28;102027.97;;;10.86;79.47
82033;BME280;71595;52.180;4.512;2023-11-21T12:32:56;102035.50;;;10.94;79.25
82033;BME280;71595;52.180;4.512;2023-11-21T12:35:24;102036.53;;;10.99;79.25
82033;BME280;71595;52.180;4.512;2023-11-21T12:37:51;102030.16;;;10.98;79.60
82033;BME280;71595;52.180;4.512;2023-11-21T12:40:17;102045.13;;;10.97;80.00
82033;BME280;71595;52.180;4.512;2023-11-21T12:42:47;102049.81;;;10.96;80.29
82033;BME280;71595;52.180;4.512;2023-11-21T12:47:49;102048.31;;;10.90;79.78
82033;BME280;71595;52.180;4.512;2023-11-21T12:50:22;102058.06;;;10.88;79.86
82033;BME280;71595;52.180;4.512;2023-11-21T12:52:52;102054.09;;;10.80;80.37
82033;BME280;71595;52.180;4.512;2023-11-21T12:55:22;102055.84;;;10.76;80.27
82033;BME280;71595;52.180;4.512;2023-11-21T12:57:51;102064.63;;;10.78;80.33
82033;BME280;71595;52.180;4.512;2023-11-21T13:00:18;102069.16;;;10.74;80.85
82033;BME280;71595;52.180;4.512;2023-11-21T13:02:53;102072.00;;;10.69;80.52
82033;BME280;71595;52.180;4.512;2023-11-21T13:07:56;102075.63;;;10.55;80.50
82033;BME280;71595;52.180;4.512;2023-11-21T13:10:26;102075.63;;;10.55;79.94
82033;BME280;71595;52.180;4.512;2023-11-21T13:12:59;102074.00;;;10.54;80.33
82033;BME280;71595;52.180;4.512;2023-11-21T13:15:26;102076.25;;;10.52;80.33
82033;BME280;71595;52.180;4.512;2023-11-21T13:17:52;102074.28;;;10.53;79.82
82033;BME280;71595;52.180;4.512;2023-11-21T13:20:19;102078.22;;;10.52;79.71
82033;BME280;71595;52.180;4.512;2023-11-21T13:22:49;102084.03;;;10.50;79.48
82033;BME280;71595;52.180;4.512;2023-11-21T13:25:17;102083.50;;;10.48;79.66
82033;BME280;71595;52.180;4.512;2023-11-21T13:27:44;102087.91;;;10.49;79.07
82033;BME280;71595;52.180;4.512;2023-11-21T13:30:13;102088.03;;;10.44;79.28
82033;BME280;71595;52.180;4.512;2023-11-21T13:32:41;102107.44;;;10.39;79.24